Latest Weather Observations for Perth Airport

IDW60901

Issued at 7:11 pm WST Monday 2 March 2015 (issued every 10 minutes, with the page automatically refreshed every 10 minutes)

About weather observations | Map of Perth area stations | Latest observations for Perth area | Other Formats
Station Details ID: 009021 Name: PERTH AIRPORT Lat: -31.93 Lon: 115.98 Height: 15.4 m
Data from the previous 72 hours. | See also: Recent months at Perth Airport
Date/Time
WST
Tmp

°C
App
Tmp
°C
Dew
Point
°C
Rel
Hum
%
Delta-T

°C
Wind Press
QNH
hPa
Press
MSL
hPa
Rain
since
9 am
mm
Dir
 
Spd
km/h
Gust
km/h
Spd
kts
Gust
kts
02/07:00pm 23.1 18.1 12.2 50 6.2 ESE 30 37 16 20 1015.3 - 0.0
02/06:30pm 24.1 18.9 11.5 45 7.1 ESE 30 39 16 21 1014.7 - 0.0
02/05:30pm 25.7 20.1 11.4 40 8.1 SE 32 41 17 22 1014.2 - 0.0
02/05:00pm 26.3 20.4 11.3 39 8.5 ESE 33 46 18 25 1013.9 - 0.0
02/04:30pm 26.7 21.0 11.2 38 8.8 SE 32 39 17 21 1013.8 - 0.0
02/04:00pm 27.3 21.4 11.1 36 9.2 ESE 33 41 18 22 1013.9 - 0.0
02/03:30pm 26.7 21.4 11.4 38 8.7 SE 30 37 16 20 1013.8 - 0.0
02/03:00pm 27.4 22.5 11.3 36 9.2 ESE 28 39 15 21 1013.8 1013.7 0.0
02/02:30pm 27.2 22.8 11.7 38 8.9 SE 26 37 14 20 1014.0 - 0.0
02/02:00pm 27.0 23.1 10.9 36 9.1 ESE 22 37 12 20 1014.3 - 0.0
02/01:30pm 27.2 22.3 11.2 36 9.1 ESE 28 37 15 20 1014.2 - 0.0
02/01:00pm 26.8 20.9 11.1 37 8.9 ESE 33 44 18 24 1014.2 - 0.0
02/12:43pm 26.7 21.8 11.2 38 8.8 E 28 41 15 22 1014.4 - 0.0
02/12:30pm 26.4 20.6 11.5 39 8.5 E 33 41 18 22 1014.4 - 0.0
02/12:24pm 26.0 21.0 11.1 39 8.4 ESE 28 54 15 29 1014.4 - 0.0
02/12:00pm 26.1 20.4 11.3 39 8.4 SE 32 41 17 22 1014.6 1014.5 0.0
02/11:00am 24.0 18.8 11.6 45 7.0 SE 30 37 16 20 1014.9 - 0.0
02/10:43am 23.7 18.9 11.6 46 6.8 SE 28 41 15 22 1015.0 - -
02/10:30am 23.9 17.8 11.9 47 6.8 ESE 35 43 19 23 1015.0 - 0.0
02/10:00am 22.9 16.8 11.9 50 6.2 ESE 35 43 19 23 1015.0 - 0.0
02/09:30am 22.6 18.0 12.2 51 5.9 SE 28 41 15 22 1014.9 - 0.0
02/08:30am 21.1 17.6 12.2 56 5.0 SE 22 33 12 18 1014.6 - 0.0
02/08:00am 20.5 15.5 12.1 58 4.7 SE 30 41 16 22 1014.2 - 0.0
02/07:30am 20.0 15.8 12.3 61 4.3 SE 26 37 14 20 1014.1 - 0.0
02/07:00am 19.8 15.2 12.3 62 4.2 SE 28 39 15 21 1013.9 - 0.0
02/06:30am 19.8 16.9 12.3 62 4.2 SSE 19 30 10 16 1013.7 - 0.0
02/05:30am 19.8 17.2 12.1 61 4.3 SSE 17 28 9 15 1013.0 - 0.0
02/05:00am 19.8 16.3 12.3 62 4.2 SE 22 32 12 17 1012.9 - 0.0
02/04:30am 19.9 16.9 12.6 63 4.1 SE 20 37 11 20 1012.4 - 0.0
02/04:00am 19.9 16.2 12.6 63 4.1 SE 24 32 13 17 1012.0 - 0.0
02/03:30am 19.9 17.2 13.0 64 3.9 SSE 19 39 10 21 1011.7 - 0.0
02/03:00am 20.1 17.3 13.1 64 4.0 SE 20 32 11 17 1011.5 1011.4 0.0
02/02:30am 20.2 16.3 13.2 64 4.0 ESE 26 44 14 24 1011.5 - 0.0
02/02:00am 20.6 17.9 13.5 63 4.1 ESE 20 33 11 18 1011.5 - 0.0
02/01:30am 21.1 17.6 13.4 61 4.4 SE 24 39 13 21 1011.5 - 0.0
02/01:00am 21.5 17.2 13.1 58 4.8 ESE 28 43 15 23 1011.5 - 0.0
02/12:30am 22.1 19.4 12.8 55 5.3 SE 19 28 10 15 1011.5 - 0.0
 
Date/Time
WST
Tmp

°C
App
Tmp
°C
Dew
Point
°C
Rel
Hum
%
Delta-T

°C
Wind Press
QNH
hPa
Press
MSL
hPa
Rain
since
9 am
mm
Dir
 
Spd
km/h
Gust
km/h
Spd
kts
Gust
kts
01/11:30pm 22.9 18.9 13.0 53 5.7 ESE 26 33 14 18 1011.4 - 0.0
01/11:00pm 23.5 20.4 13.3 52 5.9 SE 22 32 12 17 1010.7 - 0.0
01/10:30pm 24.3 19.3 13.3 50 6.4 ESE 32 46 17 25 1010.6 - 0.0
01/10:00pm 24.9 21.0 14.3 51 6.3 SE 28 35 15 19 1010.5 - 0.0
01/09:30pm 25.1 21.9 15.3 54 5.9 E 26 37 14 20 1009.7 - 0.0
01/09:00pm 24.4 23.7 15.3 57 5.5 ESE 13 17 7 9 1009.3 1009.2 0.0
01/08:30pm 23.2 22.6 15.7 62 4.5 SE 13 15 7 8 1008.8 - 0.0
01/08:00pm 24.8 24.4 15.2 55 5.8 SSW 11 17 6 9 1008.0 - 0.0
01/07:30pm 24.9 24.0 14.9 53 6.0 SSW 13 19 7 10 1007.7 - 0.0
01/07:00pm 25.1 22.5 14.8 52 6.2 SSW 22 30 12 16 1007.4 - 0.0
01/06:30pm 25.4 21.5 14.5 51 6.5 SSW 28 33 15 18 1007.3 - 0.0
01/06:00pm 25.7 20.9 14.1 48 6.9 SSW 32 39 17 21 1007.5 1007.4 0.0
01/05:30pm 26.6 22.3 13.2 43 7.9 SW 28 37 15 20 1007.1 - 0.0
01/05:00pm 26.8 22.9 13.4 43 7.9 SW 26 33 14 18 1007.1 - 0.0
01/04:30pm 27.3 23.1 13.5 42 8.2 SW 28 35 15 19 1007.3 - 0.0
01/04:00pm 28.3 22.5 11.5 35 9.7 SW 33 39 18 21 1007.3 - 0.0
01/03:30pm 29.6 24.1 10.5 30 10.9 SW 30 37 16 20 1007.1 - 0.0
01/03:00pm 31.1 26.1 10.8 28 11.7 SW 28 37 15 20 1007.0 1006.9 0.0
01/02:30pm 31.4 26.9 11.3 29 11.7 SW 26 35 14 19 1007.2 - 0.0
01/02:00pm 30.0 27.0 12.6 34 10.3 W 20 32 11 17 1007.5 - 0.0
01/01:30pm 30.7 29.7 13.3 34 10.4 SSW 11 19 6 10 1008.0 - 0.0
01/01:00pm 30.1 29.4 14.3 38 9.6 N 11 19 6 10 1008.5 - 0.0
01/12:30pm 28.7 27.8 13.8 40 8.9 NNW 11 17 6 9 1009.1 - 0.0
01/12:00pm 27.8 26.8 13.5 41 8.5 NNE 11 19 6 10 1009.6 1009.5 0.0
01/11:30am 27.8 25.8 12.8 39 8.8 E 15 24 8 13 1010.3 - 0.0
01/11:00am 26.7 24.2 12.2 40 8.4 ENE 17 24 9 13 1011.0 - 0.0
01/10:30am 25.2 22.6 11.9 43 7.6 E 17 24 9 13 1011.0 - 0.0
01/10:00am 25.0 22.6 11.4 42 7.7 E 15 22 8 12 1011.0 - 0.0
01/09:30am 24.4 21.6 11.5 44 7.3 E 17 26 9 14 1011.0 - 0.0
01/09:00am 23.2 19.8 11.4 47 6.6 E 20 30 11 16 1010.9 1010.8 0.0
01/08:30am 21.6 18.4 11.3 52 5.7 ESE 19 24 10 13 1011.3 - 0.0
01/08:00am 20.6 17.8 11.4 55 5.1 ESE 17 32 9 17 1011.4 - 0.0
01/07:30am 19.2 16.3 10.9 58 4.5 ESE 17 24 9 13 1011.4 - 0.0
01/07:00am 18.4 15.9 11.2 63 3.9 ESE 15 22 8 12 1011.3 - 0.0
01/06:30am 17.5 15.0 11.0 65 3.5 E 15 26 8 14 1010.9 - 0.0
01/06:00am 17.5 16.1 10.8 65 3.6 SE 9 15 5 8 1010.7 1010.6 0.0
01/05:30am 17.7 15.1 10.8 64 3.7 ESE 15 30 8 16 1010.8 - 0.0
01/05:00am 18.0 15.4 10.8 63 3.9 ESE 15 24 8 13 1010.7 - 0.0
01/04:30am 17.9 15.0 10.9 63 3.8 E 17 28 9 15 1010.6 - 0.0
01/04:00am 17.7 14.8 11.0 65 3.6 E 17 26 9 14 1011.0 - 0.0
01/03:30am 18.0 15.5 11.0 63 3.8 E 15 26 8 14 1011.2 - 0.0
01/03:00am 18.2 15.7 11.0 63 3.9 ESE 15 28 8 15 1011.1 1011.0 0.0
01/02:30am 18.4 14.8 10.6 60 4.2 E 20 32 11 17 1011.2 - 0.0
01/02:00am 19.0 17.1 10.5 58 4.6 ESE 11 20 6 11 1011.4 - 0.0
01/01:30am 19.4 16.7 10.5 56 4.8 SSE 15 30 8 16 1011.3 - 0.0
01/01:00am 20.1 15.7 10.3 53 5.3 ENE 24 33 13 18 1011.2 - 0.0
01/12:34am 20.7 15.5 10.2 51 5.7 E 28 48 15 26 1011.3 - 0.0
01/12:30am 20.7 15.9 10.2 51 5.7 E 26 39 14 21 1011.2 - 0.0
01/12:02am 21.5 14.5 10.1 48 6.2 E 37 56 20 30 1011.2 - 0.0
01/12:00am 21.6 14.2 10.0 47 6.3 E 39 56 21 30 1011.3 1011.2 0.0
 
Date/Time
WST
Tmp

°C
App
Tmp
°C
Dew
Point
°C
Rel
Hum
%
Delta-T

°C
Wind Press
QNH
hPa
Press
MSL
hPa
Rain
since
9 am
mm
Dir
 
Spd
km/h
Gust
km/h
Spd
kts
Gust
kts
28/11:34pm 22.3 16.7 10.0 45 6.7 ESE 30 50 16 27 1011.4 - 0.0
28/11:30pm 22.5 16.8 9.8 44 6.9 ESE 30 37 16 20 1011.4 - 0.0
28/11:00pm 23.4 17.3 9.6 41 7.5 E 32 41 17 22 1011.6 - 0.0
28/10:30pm 21.5 19.2 11.9 54 5.4 SE 15 26 8 14 1012.0 - 0.0
28/10:00pm 21.4 19.4 13.8 62 4.4 S 17 20 9 11 1012.2 - 0.0
28/09:30pm 21.9 19.5 13.8 60 4.7 S 19 22 10 12 1012.4 - 0.0
28/09:00pm 22.2 19.9 14.2 60 4.7 S 19 22 10 12 1012.5 1012.4 0.0
28/08:30pm 22.7 20.9 14.4 59 4.9 SSW 17 20 9 11 1012.5 - 0.0
28/08:00pm 23.0 21.2 14.5 58 5.0 SSW 17 26 9 14 1012.2 - 0.0
28/07:30pm 23.5 21.1 14.4 56 5.4 SW 20 26 11 14 1012.0 - 0.0
28/07:00pm 24.3 22.5 14.5 54 5.8 WSW 17 24 9 13 1011.7 - 0.0
28/06:30pm 25.9 23.3 13.9 47 7.1 WSW 20 28 11 15 1011.4 - 0.0
28/06:00pm 26.6 23.6 13.8 45 7.6 WSW 22 28 12 15 1011.3 1011.2 0.0
28/05:30pm 30.2 26.8 5.8 21 12.9 SW 13 20 7 11 1011.3 - 0.0
28/05:00pm 30.4 25.8 5.5 20 13.1 SE 19 28 10 15 1011.4 - 0.0
28/04:30pm 30.4 26.1 5.2 20 13.2 SE 17 28 9 15 1011.7 - 0.0
28/04:00pm 30.6 26.7 5.3 20 13.3 ENE 15 26 8 14 1012.1 - 0.0
28/03:30pm 30.6 26.6 4.9 19 13.4 E 15 28 8 15 1012.4 - 0.0
28/03:00pm 29.8 25.3 6.3 22 12.5 E 19 30 10 16 1012.8 1012.7 0.0
28/02:30pm 30.0 25.2 7.2 24 12.3 ESE 22 33 12 18 1013.2 - 0.0
28/02:00pm 29.0 24.7 6.9 24 11.8 ESE 19 32 10 17 1013.6 - 0.0
28/01:30pm 28.8 24.5 8.0 27 11.3 E 20 30 11 16 1014.1 - 0.0
28/01:00pm 27.8 24.1 8.0 28 10.7 SE 17 26 9 14 1014.6 - 0.0
28/12:30pm 27.7 23.9 8.9 30 10.3 E 19 32 10 17 1015.1 - 0.0
28/12:00pm 26.8 23.0 9.1 32 9.7 E 19 28 10 15 1015.3 1015.2 0.0
28/11:30am 27.0 23.2 9.7 33 9.6 SE 20 28 11 15 1015.8 - 0.0
28/11:00am 25.7 21.2 10.2 37 8.6 E 24 33 13 18 1016.1 - 0.0
28/10:30am 25.5 20.9 10.9 40 8.2 E 26 37 14 20 1016.3 - 0.0
28/10:00am 24.3 20.9 11.1 43 7.4 SE 20 30 11 16 1016.5 - 0.0
28/09:30am 23.6 20.2 11.3 46 6.9 E 20 32 11 17 1016.7 - 0.0
28/09:00am 22.6 19.5 11.5 49 6.2 ESE 19 26 10 14 1016.6 1016.5 0.0
28/08:30am 21.7 18.6 12.1 54 5.4 ESE 20 33 11 18 1016.6 - 0.0
28/08:00am 20.7 17.6 12.1 58 4.8 SE 20 32 11 17 1016.6 - 0.0
28/07:30am 20.0 16.9 12.3 61 4.3 SE 20 30 11 16 1016.3 - 0.0
28/07:00am 19.2 15.2 11.8 62 4.1 ESE 24 32 13 17 1015.9 - 0.0
28/06:30am 18.6 13.9 11.9 65 3.7 ESE 28 39 15 21 1015.4 - 0.0
28/06:00am 18.3 14.5 12.4 68 3.3 ESE 24 33 13 18 1015.0 1014.9 0.0
28/05:30am 18.6 15.6 12.5 67 3.4 ESE 20 32 11 17 1014.8 - 0.0
28/05:00am 18.9 15.9 12.7 67 3.5 SE 20 33 11 18 1014.5 - 0.0
28/04:30am 19.0 16.0 12.6 66 3.6 SE 20 32 11 17 1014.2 - 0.0
28/04:00am 19.0 16.1 13.0 68 3.4 SE 20 26 11 14 1014.1 - 0.0
28/03:30am 19.2 17.2 12.8 66 3.6 SSE 15 26 8 14 1013.9 - 0.0
28/03:00am 19.4 16.7 12.8 65 3.7 SSE 19 33 10 18 1013.5 - 0.0
28/02:30am 19.8 17.4 12.5 62 4.1 SSE 17 28 9 15 1013.4 - 0.0
28/02:00am 19.8 16.5 12.7 63 4.0 SSE 22 28 12 15 1013.3 - 0.0
28/01:30am 20.0 17.0 12.7 63 4.1 S 20 26 11 14 1013.3 - 0.0
28/01:00am 19.4 17.1 14.0 71 3.1 S 19 26 10 14 1013.3 - 0.0
28/12:30am 19.4 17.3 15.1 76 2.5 S 20 26 11 14 1013.1 - 0.0
28/12:00am 19.5 17.8 15.8 79 2.2 S 19 24 10 13 1013.0 1012.9 0.0
 
Date/Time
WST
Tmp

°C
App
Tmp
°C
Dew
Point
°C
Rel
Hum
%
Delta-T

°C
Wind Press
QNH
hPa
Press
MSL
hPa
Rain
since
9 am
mm
Dir
 
Spd
km/h
Gust
km/h
Spd
kts
Gust
kts
27/11:30pm 19.9 18.6 15.9 78 2.4 S 17 22 9 12 1012.9 - 0.0
27/11:00pm 20.2 18.5 15.8 76 2.6 S 19 22 10 12 1012.7 - 0.0
27/10:30pm 20.7 19.1 15.9 74 2.9 S 19 26 10 14 1012.5 - 0.0
27/10:00pm 21.1 20.6 15.9 72 3.1 SSW 13 17 7 9 1012.6 - 0.0
27/09:30pm 21.1 19.8 15.9 72 3.1 SSW 17 20 9 11 1012.6 - 0.0
27/09:00pm 21.3 19.0 15.8 71 3.3 SSW 22 30 12 16 1012.2 1012.1 0.0
27/08:30pm 21.5 18.4 15.5 68 3.6 SSW 26 33 14 18 1011.7 - 0.0
27/08:00pm 21.7 17.8 15.5 68 3.7 SSW 30 39 16 21 1011.3 - 0.0
27/07:30pm 22.1 18.3 14.8 63 4.3 SSW 28 35 15 19 1010.9 - 0.0

Latest Capital City Observations: Canberra | Sydney | Melbourne | Brisbane | Adelaide | Perth | Hobart | Darwin

Other Formats:

Comma delimited format used in spreadsheet applications
http://www.bom.gov.au/fwo/IDW60901/IDW60901.94610.axf

JavaScript Object Notation format (JSON) in row-major order
http://www.bom.gov.au/fwo/IDW60901/IDW60901.94610.json